sensor_id;sensor_type;location;lat;lon;timestamp;temperature;humidity
36856;DHT22;22788;51.434;6.786;2022-07-11T00:00:20;19.20;79.30
36856;DHT22;22788;51.434;6.786;2022-07-11T00:02:47;19.30;79.50
36856;DHT22;22788;51.434;6.786;2022-07-11T00:05:13;19.10;79.50
36856;DHT22;22788;51.434;6.786;2022-07-11T00:07:39;19.10;79.70
36856;DHT22;22788;51.434;6.786;2022-07-11T00:10:07;19.10;79.90
36856;DHT22;22788;51.434;6.786;2022-07-11T00:12:33;19.00;79.90
36856;DHT22;22788;51.434;6.786;2022-07-11T00:14:59;19.10;80.30
36856;DHT22;22788;51.434;6.786;2022-07-11T00:17:25;19.00;80.10
36856;DHT22;22788;51.434;6.786;2022-07-11T00:19:52;19.00;80.30
36856;DHT22;22788;51.434;6.786;2022-07-11T00:22:18;19.00;80.20
36856;DHT22;22788;51.434;6.786;2022-07-11T00:24:45;19.10;80.40
36856;DHT22;22788;51.434;6.786;2022-07-11T00:27:11;19.00;80.80
36856;DHT22;22788;51.434;6.786;2022-07-11T00:29:37;19.00;80.70
36856;DHT22;22788;51.434;6.786;2022-07-11T00:32:03;19.00;80.70
36856;DHT22;22788;51.434;6.786;2022-07-11T00:34:30;19.00;81.00
36856;DHT22;22788;51.434;6.786;2022-07-11T00:36:57;19.00;80.60
36856;DHT22;22788;51.434;6.786;2022-07-11T00:39:23;19.00;80.90
36856;DHT22;22788;51.434;6.786;2022-07-11T00:41:49;19.00;81.10
36856;DHT22;22788;51.434;6.786;2022-07-11T00:44:15;19.00;81.10
36856;DHT22;22788;51.434;6.786;2022-07-11T00:46:41;18.90;81.40
36856;DHT22;22788;51.434;6.786;2022-07-11T00:49:07;19.00;81.30
36856;DHT22;22788;51.434;6.786;2022-07-11T00:51:33;19.00;81.60
36856;DHT22;22788;51.434;6.786;2022-07-11T00:54:02;18.90;81.80
36856;DHT22;22788;51.434;6.786;2022-07-11T00:56:29;18.90;82.10
36856;DHT22;22788;51.434;6.786;2022-07-11T00:58:57;18.90;82.10
36856;DHT22;22788;51.434;6.786;2022-07-11T01:01:23;18.90;82.30
36856;DHT22;22788;51.434;6.786;2022-07-11T01:03:49;18.90;82.10
36856;DHT22;22788;51.434;6.786;2022-07-11T01:06:15;18.90;82.10
36856;DHT22;22788;51.434;6.786;2022-07-11T01:08:43;18.90;82.10
36856;DHT22;22788;51.434;6.786;2022-07-11T01:11:12;18.80;81.90
36856;DHT22;22788;51.434;6.786;2022-07-11T01:13:39;18.80;81.90
36856;DHT22;22788;51.434;6.786;2022-07-11T01:16:09;18.80;82.10
36856;DHT22;22788;51.434;6.786;2022-07-11T01:18:36;18.80;81.90
36856;DHT22;22788;51.434;6.786;2022-07-11T01:21:03;18.90;82.00
36856;DHT22;22788;51.434;6.786;2022-07-11T01:23:33;18.80;81.90
36856;DHT22;22788;51.434;6.786;2022-07-11T01:26:00;18.80;82.10
36856;DHT22;22788;51.434;6.786;2022-07-11T01:28:26;18.80;81.90
36856;DHT22;22788;51.434;6.786;2022-07-11T01:30:52;18.80;82.20
36856;DHT22;22788;51.434;6.786;2022-07-11T01:33:18;18.80;82.20
36856;DHT22;22788;51.434;6.786;2022-07-11T01:35:44;18.70;82.20
36856;DHT22;22788;51.434;6.786;2022-07-11T01:38:10;18.70;82.40
36856;DHT22;22788;51.434;6.786;2022-07-11T01:40:37;18.80;82.30
36856;DHT22;22788;51.434;6.786;2022-07-11T01:43:03;18.70;82.50
36856;DHT22;22788;51.434;6.786;2022-07-11T01:45:30;18.70;82.30
36856;DHT22;22788;51.434;6.786;2022-07-11T01:47:56;18.80;82.50
36856;DHT22;22788;51.434;6.786;2022-07-11T01:50:22;18.70;82.40
36856;DHT22;22788;51.434;6.786;2022-07-11T01:52:48;18.70;82.50
36856;DHT22;22788;51.434;6.786;2022-07-11T01:55:14;18.70;82.30
36856;DHT22;22788;51.434;6.786;2022-07-11T01:57:41;18.70;82.70
36856;DHT22;22788;51.434;6.786;2022-07-11T02:00:09;18.80;82.10
36856;DHT22;22788;51.434;6.786;2022-07-11T02:02:35;18.70;82.40
36856;DHT22;22788;51.434;6.786;2022-07-11T02:05:01;18.80;82.70
36856;DHT22;22788;51.434;6.786;2022-07-11T02:07:27;18.80;82.90
36856;DHT22;22788;51.434;6.786;2022-07-11T02:09:53;18.70;83.00
36856;DHT22;22788;51.434;6.786;2022-07-11T02:12:19;18.80;83.00
36856;DHT22;22788;51.434;6.786;2022-07-11T02:14:46;18.70;82.70
36856;DHT22;22788;51.434;6.786;2022-07-11T02:17:12;18.80;83.10
36856;DHT22;22788;51.434;6.786;2022-07-11T02:19:38;18.70;82.80
36856;DHT22;22788;51.434;6.786;2022-07-11T02:22:04;18.80;82.90
36856;DHT22;22788;51.434;6.786;2022-07-11T02:24:30;18.70;83.00
36856;DHT22;22788;51.434;6.786;2022-07-11T02:26:57;18.70;83.00
36856;DHT22;22788;51.434;6.786;2022-07-11T02:29:23;18.70;83.20
36856;DHT22;22788;51.434;6.786;2022-07-11T02:31:50;18.70;83.00
36856;DHT22;22788;51.434;6.786;2022-07-11T02:34:16;18.70;83.00
36856;DHT22;22788;51.434;6.786;2022-07-11T02:36:42;18.60;83.20
36856;DHT22;22788;51.434;6.786;2022-07-11T02:39:08;18.70;83.20
36856;DHT22;22788;51.434;6.786;2022-07-11T02:41:34;18.60;83.40
36856;DHT22;22788;51.434;6.786;2022-07-11T02:44:00;18.70;83.30
36856;DHT22;22788;51.434;6.786;2022-07-11T02:46:26;18.60;83.30
36856;DHT22;22788;51.434;6.786;2022-07-11T02:48:54;18.60;83.50
36856;DHT22;22788;51.434;6.786;2022-07-11T02:51:20;18.60;83.90
36856;DHT22;22788;51.434;6.786;2022-07-11T02:53:46;18.60;83.40
36856;DHT22;22788;51.434;6.786;2022-07-11T02:56:12;18.60;83.50
36856;DHT22;22788;51.434;6.786;2022-07-11T02:58:38;18.60;83.20
36856;DHT22;22788;51.434;6.786;2022-07-11T03:01:04;18.60;83.20
36856;DHT22;22788;51.434;6.786;2022-07-11T03:03:30;18.60;83.40
36856;DHT22;22788;51.434;6.786;2022-07-11T03:05:58;18.50;83.50
36856;DHT22;22788;51.434;6.786;2022-07-11T03:08:24;18.50;83.50
36856;DHT22;22788;51.434;6.786;2022-07-11T03:10:50;18.60;83.50
36856;DHT22;22788;51.434;6.786;2022-07-11T03:13:16;18.60;83.30
36856;DHT22;22788;51.434;6.786;2022-07-11T03:15:42;18.50;83.60
36856;DHT22;22788;51.434;6.786;2022-07-11T03:18:08;18.60;83.30
36856;DHT22;22788;51.434;6.786;2022-07-11T03:20:34;18.50;83.10
36856;DHT22;22788;51.434;6.786;2022-07-11T03:23:01;18.50;83.20
36856;DHT22;22788;51.434;6.786;2022-07-11T03:25:27;18.50;83.30
36856;DHT22;22788;51.434;6.786;2022-07-11T03:27:54;18.50;83.30
36856;DHT22;22788;51.434;6.786;2022-07-11T03:30:20;18.50;83.40
36856;DHT22;22788;51.434;6.786;2022-07-11T03:32:46;18.50;83.30
36856;DHT22;22788;51.434;6.786;2022-07-11T03:35:12;18.50;83.20
36856;DHT22;22788;51.434;6.786;2022-07-11T03:37:38;18.40;83.10
36856;DHT22;22788;51.434;6.786;2022-07-11T03:40:07;18.50;83.10
36856;DHT22;22788;51.434;6.786;2022-07-11T03:42:34;18.50;82.90
36856;DHT22;22788;51.434;6.786;2022-07-11T03:45:00;18.40;82.90
36856;DHT22;22788;51.434;6.786;2022-07-11T03:47:26;18.50;83.10
36856;DHT22;22788;51.434;6.786;2022-07-11T03:49:52;18.40;83.00
36856;DHT22;22788;51.434;6.786;2022-07-11T03:52:18;18.50;82.90
36856;DHT22;22788;51.434;6.786;2022-07-11T03:54:44;18.40;83.00
36856;DHT22;22788;51.434;6.786;2022-07-11T03:57:11;18.60;83.30
36856;DHT22;22788;51.434;6.786;2022-07-11T03:59:37;18.40;83.10
36856;DHT22;22788;51.434;6.786;2022-07-11T04:02:04;18.50;83.00
36856;DHT22;22788;51.434;6.786;2022-07-11T04:04:30;18.50;83.00
36856;DHT22;22788;51.434;6.786;2022-07-11T04:06:56;18.40;83.00
36856;DHT22;22788;51.434;6.786;2022-07-11T04:09:22;18.40;83.00
36856;DHT22;22788;51.434;6.786;2022-07-11T04:11:48;18.40;82.90
36856;DHT22;22788;51.434;6.786;2022-07-11T04:14:15;18.50;82.90
36856;DHT22;22788;51.434;6.786;2022-07-11T04:16:42;18.50;82.80
36856;DHT22;22788;51.434;6.786;2022-07-11T04:19:08;18.40;82.80
36856;DHT22;22788;51.434;6.786;2022-07-11T04:21:34;18.50;82.70
36856;DHT22;22788;51.434;6.786;2022-07-11T04:24:00;18.40;82.60
36856;DHT22;22788;51.434;6.786;2022-07-11T04:26:26;18.50;82.50
36856;DHT22;22788;51.434;6.786;2022-07-11T04:28:52;18.40;82.50
36856;DHT22;22788;51.434;6.786;2022-07-11T04:31:19;18.40;82.40
36856;DHT22;22788;51.434;6.786;2022-07-11T04:33:45;18.40;82.40
36856;DHT22;22788;51.434;6.786;2022-07-11T04:36:11;18.30;82.40
36856;DHT22;22788;51.434;6.786;2022-07-11T04:38:37;18.40;82.50
36856;DHT22;22788;51.434;6.786;2022-07-11T04:41:04;18.40;82.40
36856;DHT22;22788;51.434;6.786;2022-07-11T04:43:30;18.40;82.40
36856;DHT22;22788;51.434;6.786;2022-07-11T04:45:56;18.40;82.40
36856;DHT22;22788;51.434;6.786;2022-07-11T04:48:23;18.40;82.40
36856;DHT22;22788;51.434;6.786;2022-07-11T04:50:49;18.20;82.40
36856;DHT22;22788;51.434;6.786;2022-07-11T04:53:15;18.40;82.50
36856;DHT22;22788;51.434;6.786;2022-07-11T04:55:41;18.40;82.40
36856;DHT22;22788;51.434;6.786;2022-07-11T04:58:08;18.40;82.40
36856;DHT22;22788;51.434;6.786;2022-07-11T05:00:34;18.40;82.40
36856;DHT22;22788;51.434;6.786;2022-07-11T05:03:00;18.50;82.50
36856;DHT22;22788;51.434;6.786;2022-07-11T05:05:27;18.40;82.40
36856;DHT22;22788;51.434;6.786;2022-07-11T05:07:54;18.40;82.40
36856;DHT22;22788;51.434;6.786;2022-07-11T05:10:20;18.40;82.40
36856;DHT22;22788;51.434;6.786;2022-07-11T05:12:46;18.40;82.30
36856;DHT22;22788;51.434;6.786;2022-07-11T05:15:12;18.40;82.40
36856;DHT22;22788;51.434;6.786;2022-07-11T05:17:38;18.50;82.20
36856;DHT22;22788;51.434;6.786;2022-07-11T05:20:05;18.50;82.30
36856;DHT22;22788;51.434;6.786;2022-07-11T05:22:33;18.40;82.40
36856;DHT22;22788;51.434;6.786;2022-07-11T05:24:59;18.40;82.50
36856;DHT22;22788;51.434;6.786;2022-07-11T05:27:25;18.40;82.50
36856;DHT22;22788;51.434;6.786;2022-07-11T05:29:51;18.40;82.50
36856;DHT22;22788;51.434;6.786;2022-07-11T05:32:17;18.40;82.50
36856;DHT22;22788;51.434;6.786;2022-07-11T05:34:43;18.40;82.70
36856;DHT22;22788;51.434;6.786;2022-07-11T05:37:09;18.40;82.60
36856;DHT22;22788;51.434;6.786;2022-07-11T05:39:37;18.40;82.50
36856;DHT22;22788;51.434;6.786;2022-07-11T05:42:03;18.40;82.50
36856;DHT22;22788;51.434;6.786;2022-07-11T05:44:30;18.40;82.50
36856;DHT22;22788;51.434;6.786;2022-07-11T05:49:25;18.40;82.40
36856;DHT22;22788;51.434;6.786;2022-07-11T05:51:51;18.30;82.70
36856;DHT22;22788;51.434;6.786;2022-07-11T05:54:18;18.40;82.80
36856;DHT22;22788;51.434;6.786;2022-07-11T05:56:45;18.40;82.90
36856;DHT22;22788;51.434;6.786;2022-07-11T05:59:11;18.30;83.00
36856;DHT22;22788;51.434;6.786;2022-07-11T06:01:37;18.30;83.10
36856;DHT22;22788;51.434;6.786;2022-07-11T06:04:04;18.50;83.30
36856;DHT22;22788;51.434;6.786;2022-07-11T06:06:30;18.30;83.40
36856;DHT22;22788;51.434;6.786;2022-07-11T06:08:56;18.20;83.30
36856;DHT22;22788;51.434;6.786;2022-07-11T06:11:23;18.30;83.60
36856;DHT22;22788;51.434;6.786;2022-07-11T06:16:17;18.30;83.30
36856;DHT22;22788;51.434;6.786;2022-07-11T06:18:44;18.30;84.20
36856;DHT22;22788;51.434;6.786;2022-07-11T06:21:10;18.30;83.70
36856;DHT22;22788;51.434;6.786;2022-07-11T06:23:36;18.30;83.70
36856;DHT22;22788;51.434;6.786;2022-07-11T06:26:03;18.30;84.00
36856;DHT22;22788;51.434;6.786;2022-07-11T06:28:29;18.30;84.10
36856;DHT22;22788;51.434;6.786;2022-07-11T06:30:57;18.30;84.00
36856;DHT22;22788;51.434;6.786;2022-07-11T06:33:23;18.30;84.50
36856;DHT22;22788;51.434;6.786;2022-07-11T06:35:49;18.30;84.50
36856;DHT22;22788;51.434;6.786;2022-07-11T06:38:16;18.30;84.20
36856;DHT22;22788;51.434;6.786;2022-07-11T06:40:42;18.30;84.40
36856;DHT22;22788;51.434;6.786;2022-07-11T06:43:09;18.30;84.50
36856;DHT22;22788;51.434;6.786;2022-07-11T06:45:37;18.30;84.70
36856;DHT22;22788;51.434;6.786;2022-07-11T06:48:05;18.30;84.80
36856;DHT22;22788;51.434;6.786;2022-07-11T06:50:31;18.30;84.90
36856;DHT22;22788;51.434;6.786;2022-07-11T06:52:58;18.30;84.50
36856;DHT22;22788;51.434;6.786;2022-07-11T06:55:24;18.30;84.70
36856;DHT22;22788;51.434;6.786;2022-07-11T06:57:51;18.30;84.80
36856;DHT22;22788;51.434;6.786;2022-07-11T07:00:17;18.30;84.70
36856;DHT22;22788;51.434;6.786;2022-07-11T07:02:43;18.30;84.60
36856;DHT22;22788;51.434;6.786;2022-07-11T07:05:10;18.30;84.80
36856;DHT22;22788;51.434;6.786;2022-07-11T07:07:36;18.30;84.70
36856;DHT22;22788;51.434;6.786;2022-07-11T07:10:03;18.30;84.70
36856;DHT22;22788;51.434;6.786;2022-07-11T07:12:30;18.30;85.30
36856;DHT22;22788;51.434;6.786;2022-07-11T07:14:56;18.20;85.40
36856;DHT22;22788;51.434;6.786;2022-07-11T07:17:22;18.20;85.20
36856;DHT22;22788;51.434;6.786;2022-07-11T07:19:48;18.20;85.30
36856;DHT22;22788;51.434;6.786;2022-07-11T07:22:15;18.30;85.50
36856;DHT22;22788;51.434;6.786;2022-07-11T07:24:41;18.30;85.60
36856;DHT22;22788;51.434;6.786;2022-07-11T07:27:07;18.30;85.50
36856;DHT22;22788;51.434;6.786;2022-07-11T07:29:33;18.30;85.50
36856;DHT22;22788;51.434;6.786;2022-07-11T07:31:59;18.30;85.60
36856;DHT22;22788;51.434;6.786;2022-07-11T07:34:26;18.20;85.70
36856;DHT22;22788;51.434;6.786;2022-07-11T07:36:52;18.30;85.10
36856;DHT22;22788;51.434;6.786;2022-07-11T07:39:20;18.30;84.80
36856;DHT22;22788;51.434;6.786;2022-07-11T07:41:46;18.30;84.70
36856;DHT22;22788;51.434;6.786;2022-07-11T07:44:12;18.40;85.00
36856;DHT22;22788;51.434;6.786;2022-07-11T07:46:38;18.50;84.50
36856;DHT22;22788;51.434;6.786;2022-07-11T07:49:04;18.50;84.20
36856;DHT22;22788;51.434;6.786;2022-07-11T07:51:30;18.50;84.50
36856;DHT22;22788;51.434;6.786;2022-07-11T07:53:56;18.50;84.40
36856;DHT22;22788;51.434;6.786;2022-07-11T07:56:24;18.50;83.40
36856;DHT22;22788;51.434;6.786;2022-07-11T07:58:50;18.60;83.20
36856;DHT22;22788;51.434;6.786;2022-07-11T08:01:16;18.60;83.40
36856;DHT22;22788;51.434;6.786;2022-07-11T08:03:42;18.70;83.20
36856;DHT22;22788;51.434;6.786;2022-07-11T08:06:08;18.70;83.30
36856;DHT22;22788;51.434;6.786;2022-07-11T08:08:34;18.70;83.30
36856;DHT22;22788;51.434;6.786;2022-07-11T08:11:00;18.70;83.40
36856;DHT22;22788;51.434;6.786;2022-07-11T08:13:28;18.70;83.20
36856;DHT22;22788;51.434;6.786;2022-07-11T08:15:54;18.70;83.10
36856;DHT22;22788;51.434;6.786;2022-07-11T08:18:20;18.70;82.90
36856;DHT22;22788;51.434;6.786;2022-07-11T08:20:46;18.70;83.10
36856;DHT22;22788;51.434;6.786;2022-07-11T08:23:12;18.70;83.40
36856;DHT22;22788;51.434;6.786;2022-07-11T08:25:38;18.70;82.80
36856;DHT22;22788;51.434;6.786;2022-07-11T08:28:05;18.70;82.60
36856;DHT22;22788;51.434;6.786;2022-07-11T08:30:32;18.70;82.90
36856;DHT22;22788;51.434;6.786;2022-07-11T08:32:58;18.70;83.00
36856;DHT22;22788;51.434;6.786;2022-07-11T08:35:24;18.70;82.60
36856;DHT22;22788;51.434;6.786;2022-07-11T08:37:50;18.70;82.80
36856;DHT22;22788;51.434;6.786;2022-07-11T08:40:17;18.70;83.00
36856;DHT22;22788;51.434;6.786;2022-07-11T08:42:43;18.70;83.20
36856;DHT22;22788;51.434;6.786;2022-07-11T08:45:10;18.70;83.00
36856;DHT22;22788;51.434;6.786;2022-07-11T08:47:38;18.70;82.50
36856;DHT22;22788;51.434;6.786;2022-07-11T08:50:05;18.80;82.90
36856;DHT22;22788;51.434;6.786;2022-07-11T08:52:32;18.80;82.60
36856;DHT22;22788;51.434;6.786;2022-07-11T08:54:58;18.80;82.60
36856;DHT22;22788;51.434;6.786;2022-07-11T08:57:25;18.90;82.30
36856;DHT22;22788;51.434;6.786;2022-07-11T08:59:53;18.80;82.50
36856;DHT22;22788;51.434;6.786;2022-07-11T09:02:20;18.90;82.00
36856;DHT22;22788;51.434;6.786;2022-07-11T09:04:48;18.90;82.00
36856;DHT22;22788;51.434;6.786;2022-07-11T09:07:14;19.00;82.30
36856;DHT22;22788;51.434;6.786;2022-07-11T09:09:40;19.00;82.00
36856;DHT22;22788;51.434;6.786;2022-07-11T09:12:10;19.10;81.90
36856;DHT22;22788;51.434;6.786;2022-07-11T09:14:36;19.10;81.90
36856;DHT22;22788;51.434;6.786;2022-07-11T09:17:04;19.00;81.70
36856;DHT22;22788;51.434;6.786;2022-07-11T09:19:32;19.10;81.90
36856;DHT22;22788;51.434;6.786;2022-07-11T09:22:04;19.10;81.70
36856;DHT22;22788;51.434;6.786;2022-07-11T09:24:35;19.10;81.90
36856;DHT22;22788;51.434;6.786;2022-07-11T09:27:02;19.10;81.80
36856;DHT22;22788;51.434;6.786;2022-07-11T09:29:36;19.10;81.50
36856;DHT22;22788;51.434;6.786;2022-07-11T09:32:02;19.10;81.50
36856;DHT22;22788;51.434;6.786;2022-07-11T09:34:28;19.10;81.10
36856;DHT22;22788;51.434;6.786;2022-07-11T09:36:55;19.10;81.70
36856;DHT22;22788;51.434;6.786;2022-07-11T09:39:24;19.10;81.60
36856;DHT22;22788;51.434;6.786;2022-07-11T09:41:52;19.10;81.70
36856;DHT22;22788;51.434;6.786;2022-07-11T09:44:20;19.10;81.60
36856;DHT22;22788;51.434;6.786;2022-07-11T09:46:48;19.10;81.60
36856;DHT22;22788;51.434;6.786;2022-07-11T09:49:16;19.10;81.90
36856;DHT22;22788;51.434;6.786;2022-07-11T09:51:43;19.10;81.80
36856;DHT22;22788;51.434;6.786;2022-07-11T09:54:10;19.00;81.90
36856;DHT22;22788;51.434;6.786;2022-07-11T09:56:43;19.00;82.10
36856;DHT22;22788;51.434;6.786;2022-07-11T09:59:11;19.00;82.00
36856;DHT22;22788;51.434;6.786;2022-07-11T10:01:38;19.00;81.90
36856;DHT22;22788;51.434;6.786;2022-07-11T10:04:05;19.10;82.00
36856;DHT22;22788;51.434;6.786;2022-07-11T10:06:32;19.10;82.20
36856;DHT22;22788;51.434;6.786;2022-07-11T10:08:58;19.00;82.20
36856;DHT22;22788;51.434;6.786;2022-07-11T10:11:24;19.10;82.30
36856;DHT22;22788;51.434;6.786;2022-07-11T10:13:51;19.10;82.30
36856;DHT22;22788;51.434;6.786;2022-07-11T10:16:25;19.10;82.20
36856;DHT22;22788;51.434;6.786;2022-07-11T10:19:05;19.10;82.30
36856;DHT22;22788;51.434;6.786;2022-07-11T10:21:39;19.10;81.60
36856;DHT22;22788;51.434;6.786;2022-07-11T10:24:17;19.20;81.90
36856;DHT22;22788;51.434;6.786;2022-07-11T10:26:54;19.20;81.70
36856;DHT22;22788;51.434;6.786;2022-07-11T10:29:29;19.20;81.60
36856;DHT22;22788;51.434;6.786;2022-07-11T10:32:05;19.20;81.60
36856;DHT22;22788;51.434;6.786;2022-07-11T10:34:31;19.30;81.50
36856;DHT22;22788;51.434;6.786;2022-07-11T10:36:59;19.30;81.40
36856;DHT22;22788;51.434;6.786;2022-07-11T10:39:26;19.30;81.10
36856;DHT22;22788;51.434;6.786;2022-07-11T10:41:52;19.40;81.10
36856;DHT22;22788;51.434;6.786;2022-07-11T10:44:19;19.40;80.80
36856;DHT22;22788;51.434;6.786;2022-07-11T10:46:47;19.40;80.60
36856;DHT22;22788;51.434;6.786;2022-07-11T10:49:17;19.40;80.50
36856;DHT22;22788;51.434;6.786;2022-07-11T10:51:50;19.40;80.60
36856;DHT22;22788;51.434;6.786;2022-07-11T10:54:24;19.40;80.50
36856;DHT22;22788;51.434;6.786;2022-07-11T10:57:02;19.40;80.40
36856;DHT22;22788;51.434;6.786;2022-07-11T10:59:30;19.30;80.50
36856;DHT22;22788;51.434;6.786;2022-07-11T11:02:15;19.40;80.80
36856;DHT22;22788;51.434;6.786;2022-07-11T11:04:46;19.40;80.80
36856;DHT22;22788;51.434;6.786;2022-07-11T11:07:29;19.40;81.00
36856;DHT22;22788;51.434;6.786;2022-07-11T11:09:55;19.30;81.20
36856;DHT22;22788;51.434;6.786;2022-07-11T11:15:33;19.40;81.30
36856;DHT22;22788;51.434;6.786;2022-07-11T11:18:30;19.40;81.30
36856;DHT22;22788;51.434;6.786;2022-07-11T11:21:16;19.40;81.40
36856;DHT22;22788;51.434;6.786;2022-07-11T11:23:44;19.40;81.30
36856;DHT22;22788;51.434;6.786;2022-07-11T11:26:12;19.40;81.30
36856;DHT22;22788;51.434;6.786;2022-07-11T11:28:53;19.40;81.20
36856;DHT22;22788;51.434;6.786;2022-07-11T11:31:20;19.50;81.20
36856;DHT22;22788;51.434;6.786;2022-07-11T11:33:48;19.50;80.70
36856;DHT22;22788;51.434;6.786;2022-07-11T11:36:16;19.50;80.30
36856;DHT22;22788;51.434;6.786;2022-07-11T11:38:43;19.50;80.50
36856;DHT22;22788;51.434;6.786;2022-07-11T11:41:12;19.60;80.80
36856;DHT22;22788;51.434;6.786;2022-07-11T11:43:43;19.50;80.70
36856;DHT22;22788;51.434;6.786;2022-07-11T11:46:12;19.50;80.70
36856;DHT22;22788;51.434;6.786;2022-07-11T11:48:39;19.60;80.90
36856;DHT22;22788;51.434;6.786;2022-07-11T11:51:08;19.60;80.80
36856;DHT22;22788;51.434;6.786;2022-07-11T11:53:35;19.50;80.90
36856;DHT22;22788;51.434;6.786;2022-07-11T11:56:01;19.50;80.90
36856;DHT22;22788;51.434;6.786;2022-07-11T11:58:36;19.50;81.00
36856;DHT22;22788;51.434;6.786;2022-07-11T12:01:02;19.60;81.10
36856;DHT22;22788;51.434;6.786;2022-07-11T12:03:46;19.60;81.10
36856;DHT22;22788;51.434;6.786;2022-07-11T12:06:13;19.60;81.10
36856;DHT22;22788;51.434;6.786;2022-07-11T12:08:40;19.60;81.20
36856;DHT22;22788;51.434;6.786;2022-07-11T12:11:06;19.50;81.00
36856;DHT22;22788;51.434;6.786;2022-07-11T12:13:37;19.50;81.10
36856;DHT22;22788;51.434;6.786;2022-07-11T12:16:12;19.60;81.10
36856;DHT22;22788;51.434;6.786;2022-07-11T12:18:38;19.60;81.20
36856;DHT22;22788;51.434;6.786;2022-07-11T12:21:09;19.60;81.10
36856;DHT22;22788;51.434;6.786;2022-07-11T12:23:37;19.60;80.90
36856;DHT22;22788;51.434;6.786;2022-07-11T12:26:03;19.70;81.10
36856;DHT22;22788;51.434;6.786;2022-07-11T12:28:29;19.70;80.90
36856;DHT22;22788;51.434;6.786;2022-07-11T12:30:56;19.70;80.90
36856;DHT22;22788;51.434;6.786;2022-07-11T12:33:23;19.70;80.80
36856;DHT22;22788;51.434;6.786;2022-07-11T12:35:56;19.70;80.80
36856;DHT22;22788;51.434;6.786;2022-07-11T12:38:22;19.70;80.70
36856;DHT22;22788;51.434;6.786;2022-07-11T12:41:00;19.70;80.70
36856;DHT22;22788;51.434;6.786;2022-07-11T12:43:40;19.70;80.90
36856;DHT22;22788;51.434;6.786;2022-07-11T12:46:07;19.70;80.90
36856;DHT22;22788;51.434;6.786;2022-07-11T12:48:39;19.70;80.80
36856;DHT22;22788;51.434;6.786;2022-07-11T12:51:05;19.80;80.70
36856;DHT22;22788;51.434;6.786;2022-07-11T12:53:31;19.70;80.70
36856;DHT22;22788;51.434;6.786;2022-07-11T12:55:57;19.70;80.70
36856;DHT22;22788;51.434;6.786;2022-07-11T12:58:24;19.80;80.80
36856;DHT22;22788;51.434;6.786;2022-07-11T13:00:56;19.80;80.60
36856;DHT22;22788;51.434;6.786;2022-07-11T13:03:27;19.80;80.50
36856;DHT22;22788;51.434;6.786;2022-07-11T13:05:56;19.80;80.30
36856;DHT22;22788;51.434;6.786;2022-07-11T13:08:24;19.80;80.30
36856;DHT22;22788;51.434;6.786;2022-07-11T13:10:51;19.80;80.30
36856;DHT22;22788;51.434;6.786;2022-07-11T13:13:17;19.90;80.40
36856;DHT22;22788;51.434;6.786;2022-07-11T13:15:46;19.80;80.80
36856;DHT22;22788;51.434;6.786;2022-07-11T13:18:13;19.80;80.40
36856;DHT22;22788;51.434;6.786;2022-07-11T13:20:39;19.80;80.40
36856;DHT22;22788;51.434;6.786;2022-07-11T13:23:05;19.80;80.30
36856;DHT22;22788;51.434;6.786;2022-07-11T13:25:32;19.80;80.30
36856;DHT22;22788;51.434;6.786;2022-07-11T13:27:58;19.80;80.40
36856;DHT22;22788;51.434;6.786;2022-07-11T13:30:24;19.80;80.40
36856;DHT22;22788;51.434;6.786;2022-07-11T13:32:52;19.80;80.10
36856;DHT22;22788;51.434;6.786;2022-07-11T13:35:18;19.80;80.40
36856;DHT22;22788;51.434;6.786;2022-07-11T13:37:46;19.80;80.30
36856;DHT22;22788;51.434;6.786;2022-07-11T13:40:13;19.80;80.30
36856;DHT22;22788;51.434;6.786;2022-07-11T13:42:43;19.80;80.40
36856;DHT22;22788;51.434;6.786;2022-07-11T13:45:09;19.90;80.40
36856;DHT22;22788;51.434;6.786;2022-07-11T13:47:36;19.90;80.10
36856;DHT22;22788;51.434;6.786;2022-07-11T13:50:04;19.90;80.30
36856;DHT22;22788;51.434;6.786;2022-07-11T13:52:30;19.90;80.50
36856;DHT22;22788;51.434;6.786;2022-07-11T13:54:57;19.90;80.30
36856;DHT22;22788;51.434;6.786;2022-07-11T13:57:27;19.90;80.20
36856;DHT22;22788;51.434;6.786;2022-07-11T13:59:54;19.90;80.30
36856;DHT22;22788;51.434;6.786;2022-07-11T14:02:20;19.90;80.20
36856;DHT22;22788;51.434;6.786;2022-07-11T14:04:46;19.90;80.10
36856;DHT22;22788;51.434;6.786;2022-07-11T14:07:14;20.00;80.10
36856;DHT22;22788;51.434;6.786;2022-07-11T14:09:40;20.00;79.90
36856;DHT22;22788;51.434;6.786;2022-07-11T14:12:07;20.00;79.90
36856;DHT22;22788;51.434;6.786;2022-07-11T14:14:34;20.00;80.00
36856;DHT22;22788;51.434;6.786;2022-07-11T14:17:00;20.00;80.10
36856;DHT22;22788;51.434;6.786;2022-07-11T14:19:29;20.00;80.00
36856;DHT22;22788;51.434;6.786;2022-07-11T14:21:55;20.00;80.00
36856;DHT22;22788;51.434;6.786;2022-07-11T14:24:23;20.00;79.80
36856;DHT22;22788;51.434;6.786;2022-07-11T14:26:49;20.00;79.80
36856;DHT22;22788;51.434;6.786;2022-07-11T14:29:15;20.00;79.70
36856;DHT22;22788;51.434;6.786;2022-07-11T14:31:42;20.00;79.60
36856;DHT22;22788;51.434;6.786;2022-07-11T14:34:08;20.00;79.60
36856;DHT22;22788;51.434;6.786;2022-07-11T14:36:34;20.00;79.60
36856;DHT22;22788;51.434;6.786;2022-07-11T14:39:00;20.00;79.60
36856;DHT22;22788;51.434;6.786;2022-07-11T14:41:28;20.00;79.50
36856;DHT22;22788;51.434;6.786;2022-07-11T14:43:54;20.00;79.50
36856;DHT22;22788;51.434;6.786;2022-07-11T14:46:20;20.00;79.40
36856;DHT22;22788;51.434;6.786;2022-07-11T14:48:46;20.00;79.40
36856;DHT22;22788;51.434;6.786;2022-07-11T14:51:13;20.00;79.50
36856;DHT22;22788;51.434;6.786;2022-07-11T14:56:05;20.10;79.30
36856;DHT22;22788;51.434;6.786;2022-07-11T14:58:33;20.20;79.30
36856;DHT22;22788;51.434;6.786;2022-07-11T15:00:59;20.40;79.30
36856;DHT22;22788;51.434;6.786;2022-07-11T15:03:25;20.40;78.80
36856;DHT22;22788;51.434;6.786;2022-07-11T15:05:51;20.50;78.30
36856;DHT22;22788;51.434;6.786;2022-07-11T15:08:17;20.60;78.00
36856;DHT22;22788;51.434;6.786;2022-07-11T15:10:43;20.60;77.70
36856;DHT22;22788;51.434;6.786;2022-07-11T15:13:10;20.60;77.70
36856;DHT22;22788;51.434;6.786;2022-07-11T15:15:37;20.60;77.60
36856;DHT22;22788;51.434;6.786;2022-07-11T15:18:03;20.60;77.50
36856;DHT22;22788;51.434;6.786;2022-07-11T15:20:29;20.60;77.50
36856;DHT22;22788;51.434;6.786;2022-07-11T15:22:55;20.70;77.70
36856;DHT22;22788;51.434;6.786;2022-07-11T15:25:21;20.70;77.70
36856;DHT22;22788;51.434;6.786;2022-07-11T15:27:48;20.70;77.00
36856;DHT22;22788;51.434;6.786;2022-07-11T15:30:14;20.80;77.00
36856;DHT22;22788;51.434;6.786;2022-07-11T15:32:44;20.80;76.90
36856;DHT22;22788;51.434;6.786;2022-07-11T15:35:10;20.60;77.10
36856;DHT22;22788;51.434;6.786;2022-07-11T15:37:36;20.80;77.80
36856;DHT22;22788;51.434;6.786;2022-07-11T15:40:03;20.90;77.30